createdAt,value
2018-09-08T04:00:31.040Z,10.25
2018-09-08T04:01:31.016Z,10.22
2018-09-08T04:02:30.987Z,10.26
2018-09-08T04:03:30.980Z,10.24
2018-09-08T04:04:31.000Z,10.25
2018-09-08T04:05:30.980Z,10.11
2018-09-08T04:06:30.963Z,10.13
2018-09-08T04:07:30.937Z,10.02
2018-09-08T04:08:30.937Z,10.04
2018-09-08T04:09:30.922Z,10.01
2018-09-08T04:10:30.909Z,10.01
2018-09-08T04:11:30.895Z,10.01
2018-09-08T04:12:30.885Z,10.06
2018-09-08T04:13:30.868Z,9.96
2018-09-08T04:14:30.881Z,10.09
2018-09-08T04:15:30.852Z,9.98
2018-09-08T04:16:30.843Z,9.98
2018-09-08T04:17:30.832Z,9.99
2018-09-08T04:18:30.817Z,9.96
2018-09-08T04:19:30.841Z,9.91
2018-09-08T04:20:30.794Z,9.96
2018-09-08T04:21:30.786Z,9.89
2018-09-08T04:22:30.815Z,9.86
2018-09-08T04:23:30.761Z,9.95
2018-09-08T04:24:30.762Z,9.98
2018-09-08T04:25:30.764Z,9.93
2018-09-08T04:26:30.749Z,9.89
2018-09-08T04:27:30.716Z,9.99
2018-09-08T04:28:30.709Z,9.91
2018-09-08T04:29:30.724Z,9.96
2018-09-08T04:30:30.678Z,9.85
2018-09-08T04:31:30.671Z,9.83
2018-09-08T04:32:30.662Z,9.78
2018-09-08T04:33:30.645Z,9.74
2018-09-08T04:34:30.685Z,9.74
2018-09-08T04:35:30.622Z,9.80
2018-09-08T04:36:30.626Z,9.77
2018-09-08T04:37:30.621Z,9.77
2018-09-08T04:38:30.609Z,9.80
2018-09-08T04:39:30.594Z,9.70
2018-09-08T04:40:30.577Z,9.74
2018-09-08T04:41:30.560Z,9.77
2018-09-08T04:42:30.545Z,9.77
2018-09-08T04:43:30.539Z,9.81
2018-09-08T04:44:30.546Z,9.78
2018-09-08T04:45:30.514Z,9.85
2018-09-08T04:46:30.505Z,9.78
2018-09-08T04:47:30.494Z,9.81
2018-09-08T04:48:30.508Z,9.75
2018-09-08T04:49:32.101Z,9.80
2018-09-08T04:50:30.469Z,9.81
2018-09-08T04:51:30.452Z,9.86
2018-09-08T04:52:30.439Z,9.78
2018-09-08T04:53:30.426Z,9.78
2018-09-08T04:54:30.447Z,9.85
2018-09-08T04:55:30.408Z,9.85
2018-09-08T04:56:30.396Z,9.68
2018-09-08T04:57:30.389Z,9.74
2018-09-08T04:58:30.372Z,9.71
2018-09-08T04:59:30.389Z,9.70
2018-09-08T05:00:30.355Z,9.59
2018-09-08T05:01:30.391Z,9.65
2018-09-08T05:02:30.397Z,9.62
2018-09-08T05:03:30.309Z,9.65
2018-09-08T05:04:30.358Z,9.63
2018-09-08T05:05:30.294Z,9.62
2018-09-08T05:06:30.296Z,9.70
2018-09-08T05:07:30.266Z,9.53
2018-09-08T05:08:30.255Z,9.52
2018-09-08T05:09:30.247Z,9.55
2018-09-08T05:10:30.249Z,9.65
2018-09-08T05:11:30.224Z,9.59
2018-09-08T05:12:30.220Z,9.48
2018-09-08T05:13:30.228Z,9.60
2018-09-08T05:14:30.192Z,9.50
2018-09-08T05:15:30.191Z,9.53
2018-09-08T05:16:30.164Z,9.55
2018-09-08T05:17:30.159Z,9.58
2018-09-08T05:18:30.145Z,9.60
2018-09-08T05:19:30.146Z,9.55
2018-09-08T05:20:30.136Z,9.59
2018-09-08T05:21:30.127Z,9.55
2018-09-08T05:22:30.103Z,9.52
2018-09-08T05:23:30.099Z,9.55
2018-09-08T05:24:30.082Z,9.56
2018-09-08T05:25:30.126Z,9.59
2018-09-08T05:26:30.057Z,9.59
2018-09-08T05:27:30.049Z,9.53
2018-09-08T05:28:30.038Z,9.56
2018-09-08T05:29:30.022Z,9.63
2018-09-08T05:30:30.022Z,9.70
2018-09-08T05:31:29.998Z,9.77
2018-09-08T05:32:29.992Z,9.74
2018-09-08T05:33:30.020Z,9.77
2018-09-08T05:34:29.969Z,9.77
2018-09-08T05:35:29.970Z,9.70
2018-09-08T05:36:29.938Z,9.75
2018-09-08T05:37:29.929Z,9.85
2018-09-08T05:38:29.922Z,9.78
2018-09-08T05:39:29.913Z,9.78
2018-09-08T05:40:29.920Z,9.81
2018-09-08T05:41:29.900Z,9.85
2018-09-08T05:42:29.891Z,9.86
2018-09-08T05:43:29.877Z,9.88
2018-09-08T05:44:29.862Z,9.91
2018-09-08T05:45:29.859Z,9.85
2018-09-08T05:46:29.827Z,9.93
2018-09-08T05:47:29.818Z,9.95
2018-09-08T05:48:29.813Z,10.02
2018-09-08T05:49:29.796Z,10.01
2018-09-08T05:50:29.826Z,10.02
2018-09-08T05:51:29.777Z,10.04
2018-09-08T05:52:29.772Z,10.11
2018-09-08T05:53:29.757Z,10.06
2018-09-08T05:54:29.760Z,10.13
2018-09-08T05:55:29.744Z,10.16
2018-09-08T05:56:29.729Z,10.10
2018-09-08T05:57:29.718Z,10.28
2018-09-08T05:58:29.729Z,10.26
2018-09-08T05:59:29.703Z,10.28
2018-09-08T06:00:29.685Z,10.32
2018-09-08T06:01:29.669Z,10.35
2018-09-08T06:02:29.664Z,10.34
2018-09-08T06:03:29.654Z,10.36
2018-09-08T06:04:29.640Z,10.38
2018-09-08T06:05:29.642Z,10.52
2018-09-08T06:06:29.625Z,10.47
2018-09-08T06:07:29.603Z,10.43
2018-09-08T06:08:29.586Z,10.43
2018-09-08T06:09:29.587Z,10.35
2018-09-08T06:10:29.568Z,10.44
2018-09-08T06:11:29.547Z,10.32
2018-09-08T06:12:29.537Z,10.34
2018-09-08T06:13:29.524Z,10.34
2018-09-08T06:14:29.518Z,10.26
2018-09-08T06:15:29.513Z,10.25
2018-09-08T06:16:29.492Z,10.24
2018-09-08T06:17:29.523Z,10.20
2018-09-08T06:18:29.478Z,10.13
2018-09-08T06:19:29.475Z,10.14
2018-09-08T06:20:29.465Z,10.13
2018-09-08T06:21:29.481Z,10.10
2018-09-08T06:22:29.426Z,10.24
2018-09-08T06:23:29.411Z,10.13
2018-09-08T06:24:29.434Z,10.13
2018-09-08T06:25:29.446Z,10.14
2018-09-08T06:26:29.393Z,10.11
2018-09-08T06:27:29.368Z,10.24
2018-09-08T06:28:29.636Z,10.25
2018-09-08T06:29:29.349Z,10.26
2018-09-08T06:30:29.349Z,10.22
2018-09-08T06:31:29.321Z,10.25
2018-09-08T06:32:29.314Z,10.25
2018-09-08T06:33:29.349Z,10.34
2018-09-08T06:34:29.329Z,10.29
2018-09-08T06:35:29.309Z,10.31
2018-09-08T06:36:29.267Z,10.32
2018-09-08T06:37:29.256Z,10.32
2018-09-08T06:38:29.244Z,10.51
2018-09-08T06:39:29.234Z,10.44
2018-09-08T06:40:29.250Z,10.55
2018-09-08T06:41:29.215Z,10.70
2018-09-08T06:42:29.202Z,10.98
2018-09-08T06:43:29.190Z,11.17
2018-09-08T06:44:29.180Z,11.28
2018-09-08T06:45:29.193Z,11.31
2018-09-08T06:46:29.155Z,11.44
2018-09-08T06:47:29.144Z,11.54
2018-09-08T06:48:29.176Z,11.46
2018-09-08T06:49:29.123Z,11.48
2018-09-08T06:50:29.143Z,11.53
2018-09-08T06:51:29.101Z,11.60
2018-09-08T06:52:29.090Z,11.56
2018-09-08T06:53:29.104Z,11.62
2018-09-08T06:54:29.072Z,11.70
2018-09-08T06:55:29.069Z,11.79
2018-09-08T06:56:29.048Z,11.77
2018-09-08T06:57:29.036Z,11.70
2018-09-08T06:58:29.029Z,11.87
2018-09-08T06:59:29.033Z,11.96
2018-09-08T07:00:29.011Z,11.98
2018-09-08T07:01:28.988Z,12.00
2018-09-08T07:02:28.976Z,12.13
2018-09-08T07:03:29.097Z,12.19
2018-09-08T07:04:28.955Z,12.46
2018-09-08T07:05:28.970Z,12.46
2018-09-08T07:06:28.934Z,12.51
2018-09-08T07:07:28.920Z,12.74
2018-09-08T07:08:28.912Z,13.04
2018-09-08T07:09:28.898Z,13.36
2018-09-08T07:10:28.889Z,13.55
2018-09-08T07:11:28.885Z,13.81
2018-09-08T07:12:28.862Z,13.99
2018-09-08T07:13:28.861Z,14.16
2018-09-08T07:14:28.859Z,14.49
2018-09-08T07:15:28.837Z,14.72
2018-09-08T07:16:28.836Z,14.82
2018-09-08T07:17:28.809Z,14.91
2018-09-08T07:18:28.796Z,15.16
2018-09-08T07:19:28.785Z,15.30
2018-09-08T07:20:28.775Z,15.38
2018-09-08T07:21:28.775Z,15.48
2018-09-08T07:22:28.751Z,15.48
2018-09-08T07:23:28.742Z,15.55
2018-09-08T07:24:28.731Z,15.67
2018-09-08T07:25:28.719Z,15.76
2018-09-08T07:26:28.723Z,15.88
2018-09-08T07:27:28.697Z,15.80
2018-09-08T07:28:28.686Z,15.41
2018-09-08T07:29:28.683Z,15.20
2018-09-08T07:30:28.670Z,15.05
2018-09-08T07:31:28.667Z,15.04
2018-09-08T07:32:28.641Z,15.13
2018-09-08T07:33:28.631Z,15.11
2018-09-08T07:34:28.620Z,15.04
2018-09-08T07:35:28.608Z,15.16
2018-09-08T07:36:28.607Z,15.30
2018-09-08T07:37:28.666Z,15.68
2018-09-08T07:38:28.579Z,15.86
2018-09-08T07:39:28.563Z,16.13
2018-09-08T07:40:28.553Z,16.50
2018-09-08T07:41:28.558Z,16.67
2018-09-08T07:42:28.529Z,17.00
2018-09-08T07:43:28.521Z,17.28
2018-09-08T07:44:28.509Z,17.42
2018-09-08T07:45:28.499Z,17.55
2018-09-08T07:46:28.500Z,17.68
2018-09-08T07:47:28.485Z,17.74
2018-09-08T07:48:28.466Z,17.89
2018-09-08T07:49:28.457Z,18.01
2018-09-08T07:50:28.443Z,18.25
2018-09-08T07:51:28.440Z,18.46
2018-09-08T07:52:28.426Z,18.64
2018-09-08T07:53:28.514Z,18.72
2018-09-08T07:54:28.398Z,18.96
2018-09-08T07:55:28.454Z,19.05
2018-09-08T07:56:28.389Z,19.27
2018-09-08T07:57:28.363Z,19.49
2018-09-08T07:58:28.353Z,19.61
2018-09-08T07:59:28.419Z,19.57
2018-09-08T08:00:28.328Z,19.46
2018-09-08T08:01:28.339Z,19.42
2018-09-08T08:02:28.315Z,19.55
2018-09-08T08:03:28.303Z,19.71
2018-09-08T08:04:28.290Z,20.07
2018-09-08T08:05:28.273Z,20.19
2018-09-08T08:06:28.278Z,20.19
2018-09-08T08:07:28.252Z,20.22
2018-09-08T08:08:28.242Z,20.34
2018-09-08T08:09:28.259Z,20.34
2018-09-08T08:10:28.220Z,20.17
2018-09-08T08:11:28.222Z,20.41
2018-09-08T08:12:28.197Z,20.33
2018-09-08T08:13:28.186Z,20.01
2018-09-08T08:14:28.263Z,19.65
2018-09-08T08:15:28.161Z,19.38
2018-09-08T08:16:28.164Z,19.27
2018-09-08T08:17:28.141Z,19.15
2018-09-08T08:18:28.136Z,19.39
2018-09-08T08:19:28.119Z,19.58
2018-09-08T08:20:28.108Z,19.94
2018-09-08T08:21:28.107Z,19.98
2018-09-08T08:22:28.087Z,20.13
2018-09-08T08:23:28.074Z,20.35
2018-09-08T08:24:28.062Z,20.41
2018-09-08T08:25:28.060Z,20.61
2018-09-08T08:26:28.065Z,20.88
2018-09-08T08:27:28.032Z,21.22
2018-09-08T08:28:28.018Z,21.36
2018-09-08T08:29:28.008Z,21.26
2018-09-08T08:30:27.996Z,21.51
2018-09-08T08:31:27.997Z,21.81
2018-09-08T08:32:27.976Z,21.24
2018-09-08T08:33:27.961Z,20.96
2018-09-08T08:34:27.959Z,21.45
2018-09-08T08:35:27.939Z,21.70
2018-09-08T08:36:27.941Z,21.59
2018-09-08T08:37:27.919Z,21.37
2018-09-08T08:38:27.907Z,21.05
2018-09-08T08:39:27.896Z,21.51
2018-09-08T08:40:27.891Z,21.75
2018-09-08T08:41:27.883Z,21.75
2018-09-08T08:42:27.866Z,21.83
2018-09-08T08:43:27.851Z,21.75
2018-09-08T08:44:27.847Z,20.75
2018-09-08T08:45:27.846Z,20.01
2018-09-08T08:46:27.829Z,20.13
2018-09-08T08:47:27.806Z,20.07
2018-09-08T08:48:27.804Z,20.40
2018-09-08T08:49:27.786Z,20.75
2018-09-08T08:50:27.775Z,21.15
2018-09-08T08:51:27.818Z,21.71
2018-09-08T08:52:27.784Z,21.75
2018-09-08T08:53:27.743Z,21.85
2018-09-08T08:54:27.732Z,22.04
2018-09-08T08:55:27.724Z,20.90
2018-09-08T08:56:27.720Z,20.93
2018-09-08T08:57:27.698Z,21.71
2018-09-08T08:58:27.686Z,22.05
2018-09-08T08:59:27.687Z,21.77
2018-09-08T09:00:27.668Z,21.11
2018-09-08T09:01:27.662Z,21.42
2018-09-08T09:02:27.647Z,21.90
2018-09-08T09:03:27.628Z,22.21
2018-09-08T09:04:27.620Z,22.57
2018-09-08T09:05:27.606Z,23.15
2018-09-08T09:06:27.614Z,23.03
2018-09-08T09:07:27.584Z,22.86
2018-09-08T09:08:28.058Z,22.51
2018-09-08T09:09:27.580Z,22.46
2018-09-08T09:10:27.551Z,21.67
2018-09-08T09:11:27.542Z,21.89
2018-09-08T09:12:27.544Z,22.26
2018-09-08T09:13:27.553Z,22.01
2018-09-08T09:14:27.509Z,21.08
2018-09-08T09:15:28.001Z,20.79
2018-09-08T09:16:27.485Z,20.76
2018-09-08T09:17:27.491Z,21.19
2018-09-08T09:18:27.463Z,21.53
2018-09-08T09:19:27.453Z,22.04
2018-09-08T09:20:28.119Z,22.12
2018-09-08T09:21:28.108Z,22.38
2018-09-08T09:22:27.430Z,22.20
2018-09-08T09:23:27.409Z,22.23
2018-09-08T09:24:27.929Z,22.35
2018-09-08T09:25:27.390Z,22.15
2018-09-08T09:26:27.377Z,21.98
2018-09-08T09:27:27.382Z,21.33
2018-09-08T09:28:27.352Z,21.06
2018-09-08T09:29:27.347Z,21.19
2018-09-08T09:30:27.335Z,21.22
2018-09-08T09:31:27.319Z,21.18
2018-09-08T09:32:27.319Z,21.51
2018-09-08T09:33:27.300Z,22.01
2018-09-08T09:34:27.287Z,22.39
2018-09-08T09:35:27.399Z,22.21
2018-09-08T09:36:27.265Z,22.17
2018-09-08T09:37:27.284Z,22.23
2018-09-08T09:38:27.240Z,22.09
2018-09-08T09:39:27.231Z,21.71
2018-09-08T09:40:27.222Z,21.42
2018-09-08T09:41:27.209Z,20.75
2018-09-08T09:42:27.209Z,20.58
2018-09-08T09:43:27.200Z,20.63
2018-09-08T09:44:27.183Z,20.20
2018-09-08T09:45:27.164Z,20.08
2018-09-08T09:46:27.155Z,20.00
2018-09-08T09:47:27.155Z,19.97
2018-09-08T09:48:27.131Z,19.83
2018-09-08T09:49:27.125Z,19.71
2018-09-08T09:50:27.116Z,19.49
2018-09-08T09:51:27.100Z,19.35
2018-09-08T09:52:27.097Z,19.12
2018-09-08T09:53:27.075Z,18.91
2018-09-08T09:54:27.067Z,18.66
2018-09-08T09:55:27.071Z,18.51
2018-09-08T09:56:27.043Z,18.42
2018-09-08T09:57:27.041Z,18.42
2018-09-08T09:58:27.020Z,18.34
2018-09-08T09:59:27.007Z,18.41
2018-09-08T10:00:26.999Z,18.38
2018-09-08T10:01:26.988Z,18.36
2018-09-08T10:02:26.994Z,18.47
2018-09-08T10:03:26.964Z,18.51
2018-09-08T10:04:26.960Z,18.38
2018-09-08T10:05:26.948Z,18.46
2018-09-08T10:06:26.950Z,18.39
2018-09-08T10:07:26.939Z,18.49
2018-09-08T10:08:26.912Z,18.49
2018-09-08T10:09:26.898Z,18.41
2018-09-08T10:10:26.892Z,18.41
2018-09-08T10:11:26.877Z,18.38
2018-09-08T10:12:26.880Z,18.32
2018-09-08T10:13:26.856Z,18.36
2018-09-08T10:14:26.843Z,18.41
2018-09-08T10:15:26.832Z,18.42
2018-09-08T10:16:26.820Z,18.42
2018-09-08T10:17:26.822Z,18.44
2018-09-08T10:18:26.799Z,18.41
2018-09-08T10:19:26.789Z,18.47
2018-09-08T10:20:26.778Z,18.44
2018-09-08T10:21:26.765Z,18.46
2018-09-08T10:22:26.763Z,18.54
2018-09-08T10:23:26.845Z,18.51
2018-09-08T10:24:26.732Z,18.44
2018-09-08T10:25:26.724Z,18.32
2018-09-08T10:26:26.786Z,18.47
2018-09-08T10:27:26.711Z,18.42
2018-09-08T10:28:26.691Z,18.56
2018-09-08T10:29:26.676Z,18.56
2018-09-08T10:30:26.683Z,18.38
2018-09-08T10:31:26.655Z,18.44
2018-09-08T10:32:26.659Z,18.50
2018-09-08T10:33:26.630Z,18.64
2018-09-08T10:34:26.620Z,18.62
2018-09-08T10:35:26.609Z,18.69
2018-09-08T10:36:26.597Z,18.65
2018-09-08T10:37:26.597Z,18.76
2018-09-08T10:38:26.575Z,18.65
2018-09-08T10:39:26.570Z,18.60
2018-09-08T10:40:26.631Z,18.51
2018-09-08T10:41:26.543Z,18.51
2018-09-08T10:42:26.543Z,18.44
2018-09-08T10:43:26.521Z,18.56
2018-09-08T10:44:26.512Z,18.53
2018-09-08T10:45:26.501Z,18.56
2018-09-08T10:46:26.489Z,18.66
2018-09-08T10:47:26.486Z,18.76
2018-09-08T10:48:26.465Z,18.78
2018-09-08T10:49:26.458Z,18.68
2018-09-08T10:50:26.445Z,18.75
2018-09-08T10:51:26.433Z,18.79
2018-09-08T10:52:26.433Z,18.82
2018-09-08T10:53:26.409Z,18.91
2018-09-08T10:54:26.398Z,18.99
2018-09-08T10:55:26.390Z,19.06
2018-09-08T10:56:26.377Z,18.99
2018-09-08T10:57:26.378Z,18.89
2018-09-08T10:58:26.362Z,18.96
2018-09-08T10:59:26.349Z,18.97
2018-09-08T11:00:26.378Z,18.91
2018-09-08T11:01:26.456Z,18.96
2018-09-08T11:02:26.521Z,18.93
2018-09-08T11:03:26.321Z,19.12
2018-09-08T11:04:26.299Z,19.12
2018-09-08T11:05:26.279Z,19.31
2018-09-08T11:06:26.265Z,19.38
2018-09-08T11:07:26.265Z,19.40
2018-09-08T11:08:26.243Z,19.31
2018-09-08T11:09:26.231Z,19.23
2018-09-08T11:10:26.224Z,19.23
2018-09-08T11:11:26.214Z,19.16
2018-09-08T11:12:26.212Z,19.12
2018-09-08T11:13:26.186Z,19.15
2018-09-08T11:14:26.179Z,19.28
2018-09-08T11:15:26.233Z,19.39
2018-09-08T11:16:26.155Z,19.43
2018-09-08T11:17:26.144Z,19.46
2018-09-08T11:18:26.149Z,19.45
2018-09-08T11:19:26.123Z,19.34
2018-09-08T11:20:26.119Z,19.35
2018-09-08T11:21:26.103Z,19.43
2018-09-08T11:22:26.090Z,19.43
2018-09-08T11:23:26.087Z,19.43
2018-09-08T11:24:26.068Z,19.46
2018-09-08T11:25:26.058Z,19.46
2018-09-08T11:26:26.043Z,19.40
2018-09-08T11:27:26.036Z,19.52
2018-09-08T11:28:26.033Z,19.52
2018-09-08T11:29:26.011Z,19.38
2018-09-08T11:30:26.055Z,19.50
2018-09-08T11:31:25.990Z,19.49
2018-09-08T11:32:25.983Z,19.42
2018-09-08T11:33:25.976Z,19.49
2018-09-08T11:34:25.955Z,19.57
2018-09-08T11:35:25.947Z,19.50
2018-09-08T11:36:25.935Z,19.55
2018-09-08T11:37:25.925Z,19.64
2018-09-08T11:38:25.997Z,19.55
2018-09-08T11:39:25.901Z,19.65
2018-09-08T11:40:25.888Z,19.55
2018-09-08T11:41:25.879Z,19.64
2018-09-08T11:42:25.867Z,19.61
2018-09-08T11:43:25.868Z,19.62
2018-09-08T11:44:25.848Z,19.70
2018-09-08T11:45:25.833Z,19.67
2018-09-08T11:46:25.823Z,19.70
2018-09-08T11:47:25.812Z,19.71
2018-09-08T11:48:25.816Z,19.67
2018-09-08T11:49:25.819Z,19.75
2018-09-08T11:50:25.778Z,19.68
2018-09-08T11:51:25.776Z,19.70
2018-09-08T11:52:25.762Z,19.67
2018-09-08T11:53:25.759Z,19.75
2018-09-08T11:54:25.739Z,19.65
2018-09-08T11:55:25.723Z,19.68
2018-09-08T11:56:25.711Z,19.57
2018-09-08T11:57:25.701Z,19.60
2018-09-08T11:58:25.703Z,19.64
2018-09-08T11:59:25.724Z,19.68
2018-09-08T12:00:25.669Z,19.62
2018-09-08T12:01:25.659Z,19.79
2018-09-08T12:02:25.646Z,19.80
2018-09-08T12:03:25.651Z,19.90
2018-09-08T12:04:25.624Z,19.90
2018-09-08T12:05:25.616Z,19.90
2018-09-08T12:06:25.639Z,19.90
2018-09-08T12:07:25.611Z,20.01
2018-09-08T12:08:25.589Z,20.05
2018-09-08T12:09:25.566Z,20.13
2018-09-08T12:10:25.559Z,20.07
2018-09-08T12:11:25.545Z,20.23
2018-09-08T12:12:25.535Z,20.17
2018-09-08T12:13:25.533Z,20.30
2018-09-08T12:14:25.513Z,20.26
2018-09-08T12:15:25.519Z,20.33
2018-09-08T12:16:25.490Z,20.20
2018-09-08T12:17:25.478Z,20.33
2018-09-08T12:18:25.482Z,20.26
2018-09-08T12:19:25.464Z,20.23
2018-09-08T12:20:25.450Z,20.20
2018-09-08T12:21:25.433Z,20.20
2018-09-08T12:22:25.423Z,20.23
2018-09-08T12:23:25.422Z,20.26
2018-09-08T12:24:25.402Z,20.30
2018-09-08T12:25:25.389Z,20.51
2018-09-08T12:26:25.378Z,20.53
2018-09-08T12:27:25.366Z,20.53
2018-09-08T12:28:25.369Z,20.53
2018-09-08T12:29:25.362Z,20.50
2018-09-08T12:30:25.371Z,20.54
2018-09-08T12:31:25.326Z,20.60
2018-09-08T12:32:25.377Z,20.61
2018-09-08T12:33:25.316Z,20.63
2018-09-08T12:34:25.290Z,20.69
2018-09-08T12:35:25.280Z,20.61
2018-09-08T12:36:25.269Z,20.60
2018-09-08T12:37:25.256Z,20.42
2018-09-08T12:38:25.262Z,20.51
2018-09-08T12:39:25.256Z,20.42
2018-09-08T12:40:25.224Z,20.46
2018-09-08T12:41:25.213Z,20.53
2018-09-08T12:42:25.202Z,20.54
2018-09-08T12:43:25.207Z,20.53
2018-09-08T12:44:25.180Z,20.50
2018-09-08T12:45:25.168Z,20.33
2018-09-08T12:46:25.158Z,20.25
2018-09-08T12:47:25.146Z,20.23
2018-09-08T12:48:25.145Z,20.35
2018-09-08T12:49:25.123Z,20.33
2018-09-08T12:50:25.120Z,20.34
2018-09-08T12:51:25.101Z,20.27
2018-09-08T12:52:25.094Z,20.26
2018-09-08T12:53:25.125Z,20.23
2018-09-08T12:54:25.070Z,20.35
2018-09-08T12:55:25.059Z,20.34
2018-09-08T12:56:25.045Z,20.42
2018-09-08T12:57:25.037Z,20.50
2018-09-08T12:58:25.034Z,20.53
2018-09-08T12:59:25.083Z,20.56
2018-09-08T13:00:25.013Z,20.63
2018-09-08T13:01:24.991Z,20.56
2018-09-08T13:02:24.981Z,20.71
2018-09-08T13:03:24.981Z,20.68
2018-09-08T13:04:24.957Z,20.64
2018-09-08T13:05:24.945Z,20.60
2018-09-08T13:06:24.935Z,20.53
2018-09-08T13:07:24.929Z,20.44
2018-09-08T13:08:24.925Z,20.23
2018-09-08T13:09:24.907Z,20.23
2018-09-08T13:10:24.895Z,20.30
2018-09-08T13:11:24.882Z,20.26
2018-09-08T13:12:24.874Z,20.37
2018-09-08T13:13:24.869Z,20.40
2018-09-08T13:14:24.850Z,20.46
2018-09-08T13:15:24.837Z,20.46
2018-09-08T13:16:24.825Z,20.31
2018-09-08T13:17:24.813Z,20.26
2018-09-08T13:18:24.824Z,20.35
2018-09-08T13:19:24.793Z,20.31
2018-09-08T13:20:24.787Z,20.41
2018-09-08T13:21:24.769Z,20.38
2018-09-08T13:22:24.758Z,20.51
2018-09-08T13:23:24.745Z,20.48
2018-09-08T13:24:24.780Z,20.51
2018-09-08T13:25:24.729Z,20.46
2018-09-08T13:26:24.717Z,20.40
2018-09-08T13:27:24.702Z,20.46
2018-09-08T13:28:24.693Z,20.37
2018-09-08T13:29:24.691Z,20.37
2018-09-08T13:30:24.669Z,20.41
2018-09-08T13:31:24.658Z,20.40
2018-09-08T13:32:24.645Z,20.26
2018-09-08T13:33:24.644Z,20.34
2018-09-08T13:34:24.645Z,20.30
2018-09-08T13:35:24.616Z,20.30
2018-09-08T13:36:24.605Z,20.26
2018-09-08T13:37:24.596Z,20.20
2018-09-08T13:38:24.581Z,20.25
2018-09-08T13:39:24.587Z,20.48
2018-09-08T13:40:24.561Z,20.53
2018-09-08T13:41:24.546Z,20.50
2018-09-08T13:42:24.538Z,20.41
2018-09-08T13:43:24.530Z,20.38
2018-09-08T13:44:24.530Z,20.35
2018-09-08T13:45:24.505Z,20.25
2018-09-08T13:46:24.491Z,20.37
2018-09-08T13:47:24.539Z,20.22
2018-09-08T13:48:24.472Z,20.17
2018-09-08T13:49:24.473Z,20.08
2018-09-08T13:50:24.447Z,20.13
2018-09-08T13:51:24.436Z,20.23
2018-09-08T13:52:24.426Z,20.20
2018-09-08T13:53:24.415Z,20.13
2018-09-08T13:54:24.414Z,20.07
2018-09-08T13:55:24.394Z,20.13
2018-09-08T13:56:24.380Z,20.19
2018-09-08T13:57:24.370Z,20.23
2018-09-08T13:58:24.365Z,20.26
2018-09-08T13:59:24.360Z,20.23
2018-09-08T14:00:24.338Z,20.23
2018-09-08T14:01:24.333Z,20.25
2018-09-08T14:02:24.321Z,20.27
2018-09-08T14:03:24.304Z,20.25
2018-09-08T14:04:24.306Z,20.19
2018-09-08T14:05:24.284Z,20.17
2018-09-08T14:06:24.271Z,20.13
2018-09-08T14:07:24.263Z,20.04
2018-09-08T14:08:24.250Z,19.85
2018-09-08T14:09:24.248Z,19.90
2018-09-08T14:10:24.251Z,19.86
2018-09-08T14:11:24.218Z,19.71
2018-09-08T14:12:24.204Z,19.75
2018-09-08T14:13:24.197Z,19.89
2018-09-08T14:14:24.194Z,19.87
2018-09-08T14:15:24.232Z,19.94
2018-09-08T14:16:24.161Z,19.92
2018-09-08T14:17:24.150Z,20.01
2018-09-08T14:18:24.146Z,20.04
2018-09-08T14:19:24.139Z,20.01
2018-09-08T14:20:24.122Z,19.90
2018-09-08T14:21:24.108Z,19.89
2018-09-08T14:22:24.095Z,19.89
2018-09-08T14:23:24.083Z,19.76
2018-09-08T14:24:24.084Z,19.64
2018-09-08T14:25:24.063Z,19.64
2018-09-08T14:26:24.053Z,19.61
2018-09-08T14:27:24.037Z,19.53
2018-09-08T14:28:24.029Z,19.47
2018-09-08T14:29:24.029Z,19.34
2018-09-08T14:30:24.006Z,19.35
2018-09-08T14:31:23.994Z,19.28
2018-09-08T14:32:23.981Z,19.23
2018-09-08T14:33:23.973Z,19.15
2018-09-08T14:34:23.975Z,19.10
2018-09-08T14:35:23.955Z,19.09
2018-09-08T14:36:23.941Z,18.94
2018-09-08T14:37:23.928Z,19.06
2018-09-08T14:38:23.922Z,19.06
2018-09-08T14:39:23.916Z,19.06
2018-09-08T14:40:23.894Z,18.94
2018-09-08T14:41:23.883Z,18.90
2018-09-08T14:42:23.871Z,18.84
2018-09-08T14:43:23.861Z,18.82
2018-09-08T14:44:23.860Z,18.78
2018-09-08T14:45:23.837Z,18.78
2018-09-08T14:46:23.828Z,18.82
2018-09-08T14:47:23.887Z,18.82
2018-09-08T14:48:23.804Z,18.76
2018-09-08T14:49:23.811Z,18.69
2018-09-08T14:50:23.783Z,18.74
2018-09-08T14:51:23.769Z,18.65
2018-09-08T14:52:23.760Z,18.62
2018-09-08T14:53:23.749Z,18.60
2018-09-08T14:54:23.754Z,18.54
2018-09-08T14:55:23.728Z,18.49
2018-09-08T14:56:23.714Z,18.47
2018-09-08T14:57:23.705Z,18.41
2018-09-08T14:58:23.695Z,18.51
2018-09-08T14:59:23.694Z,18.44
2018-09-08T15:00:23.677Z,18.42
2018-09-08T15:01:23.661Z,18.39
2018-09-08T15:02:23.649Z,18.36
2018-09-08T15:03:23.645Z,18.34
2018-09-08T15:04:23.638Z,18.36
2018-09-08T15:05:23.619Z,18.38
2018-09-08T15:06:23.606Z,18.51
2018-09-08T15:07:23.604Z,18.82
2018-09-08T15:08:23.597Z,19.07
2018-09-08T15:09:23.583Z,19.13
2018-09-08T15:10:23.562Z,19.13
2018-09-08T15:11:23.549Z,19.13
2018-09-08T15:12:23.545Z,19.13
2018-09-08T15:13:23.531Z,19.17
2018-09-08T15:14:23.527Z,19.28
2018-09-08T15:15:23.509Z,19.27
2018-09-08T15:16:23.542Z,19.21
2018-09-08T15:17:23.483Z,19.21
2018-09-08T15:18:23.472Z,19.27
2018-09-08T15:19:23.518Z,19.23
2018-09-08T15:20:23.449Z,19.34
2018-09-08T15:21:23.442Z,19.32
2018-09-08T15:22:23.427Z,19.38
2018-09-08T15:23:23.416Z,19.28
2018-09-08T15:24:23.487Z,19.24
2018-09-08T15:25:23.400Z,19.20
2018-09-08T15:26:23.446Z,19.06
2018-09-08T15:27:23.373Z,18.86
2018-09-08T15:28:23.363Z,18.84
2018-09-08T15:29:23.352Z,18.64
2018-09-08T15:30:23.350Z,18.59
2018-09-08T15:31:23.329Z,18.56
2018-09-08T15:32:23.319Z,18.51
2018-09-08T15:33:23.360Z,18.44
2018-09-08T15:34:23.297Z,18.49
2018-09-08T15:35:23.295Z,18.31
2018-09-08T15:36:23.274Z,18.25
2018-09-08T15:37:23.263Z,18.13
2018-09-08T15:38:23.254Z,18.11
2018-09-08T15:39:23.239Z,18.07
2018-09-08T15:40:23.238Z,18.02
2018-09-08T15:41:23.221Z,17.86
2018-09-08T15:42:23.206Z,17.83
2018-09-08T15:43:23.194Z,17.76
2018-09-08T15:44:23.208Z,17.77
2018-09-08T15:45:23.232Z,17.80
2018-09-08T15:46:23.162Z,17.74
2018-09-08T15:47:23.155Z,17.65
2018-09-08T15:48:23.144Z,17.65
2018-09-08T15:49:23.132Z,17.68
2018-09-08T15:50:23.129Z,17.62
2018-09-08T15:51:23.121Z,17.62
2018-09-08T15:52:23.097Z,17.55
2018-09-08T15:53:23.092Z,17.57
2018-09-08T15:54:23.074Z,17.49
2018-09-08T15:55:23.072Z,17.39
2018-09-08T15:56:23.051Z,17.32
2018-09-08T15:57:23.040Z,17.39
2018-09-08T15:58:23.064Z,17.27
2018-09-08T15:59:23.020Z,17.32
2018-09-08T16:00:23.017Z,17.22
2018-09-08T16:01:22.997Z,17.28
2018-09-08T16:02:22.988Z,17.30
2018-09-08T16:03:22.973Z,17.24
2018-09-08T16:04:22.968Z,17.27
2018-09-08T16:05:22.968Z,17.27
2018-09-08T16:06:22.942Z,17.24
2018-09-08T16:07:22.932Z,17.09
2018-09-08T16:08:22.918Z,17.10
2018-09-08T16:09:22.906Z,17.12
2018-09-08T16:10:22.912Z,17.12
2018-09-08T16:11:22.919Z,17.15
2018-09-08T16:12:22.874Z,17.10
2018-09-08T16:13:22.863Z,17.10
2018-09-08T16:14:22.913Z,17.06
2018-09-08T16:15:22.856Z,17.10
2018-09-08T16:16:22.837Z,17.09
2018-09-08T16:17:22.819Z,17.10
2018-09-08T16:18:22.809Z,17.12
2018-09-08T16:19:22.799Z,17.15
2018-09-08T16:20:22.796Z,17.14
2018-09-08T16:21:22.776Z,17.14
2018-09-08T16:22:22.789Z,17.10
2018-09-08T16:23:22.759Z,17.10
2018-09-08T16:24:22.814Z,17.06
2018-09-08T16:25:22.739Z,17.05
2018-09-08T16:26:22.752Z,17.02
2018-09-08T16:27:22.707Z,16.99
2018-09-08T16:28:22.700Z,16.98
2018-09-08T16:29:22.693Z,16.92
2018-09-08T16:30:22.687Z,16.88
2018-09-08T16:31:22.668Z,16.92
2018-09-08T16:32:22.652Z,16.99
2018-09-08T16:33:22.645Z,17.02
2018-09-08T16:34:22.661Z,17.00
2018-09-08T16:35:22.632Z,17.00
2018-09-08T16:36:22.607Z,16.85
2018-09-08T16:37:22.608Z,16.96
2018-09-08T16:38:22.586Z,16.90
2018-09-08T16:39:22.590Z,16.92
2018-09-08T16:40:22.575Z,16.88
2018-09-08T16:41:22.559Z,16.84
2018-09-08T16:42:22.545Z,16.87
2018-09-08T16:43:22.530Z,16.91
2018-09-08T16:44:22.524Z,16.80
2018-09-08T16:45:22.523Z,16.77
2018-09-08T16:46:22.496Z,16.78
2018-09-08T16:47:22.486Z,16.69
2018-09-08T16:48:22.482Z,16.77
2018-09-08T16:49:22.467Z,16.78
2018-09-08T16:50:22.467Z,16.73
2018-09-08T16:51:22.445Z,16.67
2018-09-08T16:52:22.463Z,16.70
2018-09-08T16:53:22.424Z,16.78
2018-09-08T16:54:22.414Z,16.67
2018-09-08T16:55:22.509Z,16.70